createdAt,value
2022-09-12T00:01:14.063Z,21.50
2022-09-12T00:06:30.539Z,21.40
2022-09-12T00:11:34.632Z,21.00
2022-09-12T00:16:36.903Z,21.80
2022-09-12T00:21:40.044Z,21.70
2022-09-12T00:26:41.718Z,21.10
2022-09-12T00:31:43.564Z,21.10
2022-09-12T00:36:45.247Z,20.90
2022-09-12T00:41:47.051Z,21.50
2022-09-12T00:47:00.550Z,21.30
2022-09-12T00:52:14.558Z,21.50
2022-09-12T00:57:17.866Z,20.80
2022-09-12T01:02:20.702Z,20.70
2022-09-12T01:07:22.425Z,20.90
2022-09-12T01:12:24.565Z,21.00
2022-09-12T01:17:39.726Z,21.20
2022-09-12T01:23:22.985Z,20.70
2022-09-12T01:29:08.152Z,20.30
2022-09-12T01:34:19.941Z,20.20
2022-09-12T01:39:46.186Z,19.80
2022-09-12T01:44:56.789Z,19.90
2022-09-12T01:50:24.896Z,20.30
2022-09-12T01:55:45.767Z,20.60
2022-09-12T02:00:56.536Z,20.20
2022-09-12T02:06:07.478Z,20.40
2022-09-12T02:11:12.806Z,20.10
2022-09-12T02:16:22.445Z,19.70
2022-09-12T02:21:27.372Z,19.70
2022-09-12T02:26:37.487Z,19.80
2022-09-12T02:31:46.836Z,19.80
2022-09-12T02:37:11.730Z,19.80
2022-09-12T02:42:13.787Z,20.00
2022-09-12T02:47:20.369Z,20.10
2022-09-12T02:52:22.372Z,19.80
2022-09-12T02:57:24.498Z,20.00
2022-09-12T03:02:57.088Z,20.20
2022-09-12T03:08:42.464Z,20.00
2022-09-12T03:14:25.380Z,20.40
2022-09-12T03:19:38.795Z,19.70
2022-09-12T03:25:12.380Z,19.70
2022-09-12T03:30:14.092Z,20.00
2022-09-12T03:35:22.266Z,19.50
2022-09-12T03:40:24.620Z,20.10
2022-09-12T03:45:26.405Z,20.20
2022-09-12T03:50:28.234Z,20.00
2022-09-12T03:55:30.043Z,19.70
2022-09-12T04:00:31.766Z,19.60
2022-09-12T04:05:33.523Z,19.50
2022-09-12T04:10:35.198Z,19.90
2022-09-12T04:15:36.895Z,20.00
2022-09-12T04:20:38.598Z,20.00
2022-09-12T04:25:40.296Z,20.00
2022-09-12T04:30:41.988Z,19.70
2022-09-12T04:35:43.888Z,19.80
2022-09-12T04:40:45.580Z,19.80
2022-09-12T04:45:47.267Z,19.50
2022-09-12T04:50:48.972Z,19.80
2022-09-12T04:55:50.683Z,19.50
2022-09-12T05:00:52.373Z,20.30
2022-09-12T05:05:56.416Z,19.50
2022-09-12T05:11:06.094Z,19.80
2022-09-12T05:16:10.367Z,19.70
2022-09-12T05:21:14.137Z,19.40
2022-09-12T05:26:16.685Z,19.80
2022-09-12T05:31:26.380Z,19.70
2022-09-12T05:36:29.768Z,19.70
2022-09-12T05:41:32.604Z,19.80
2022-09-12T05:46:39.706Z,20.00
2022-09-12T05:51:44.144Z,20.30
2022-09-12T05:56:46.409Z,20.70
2022-09-12T06:01:48.987Z,20.30
2022-09-12T06:06:50.844Z,20.30
2022-09-12T06:11:52.523Z,20.30
2022-09-12T06:16:54.954Z,20.50
2022-09-12T06:21:58.397Z,20.60
2022-09-12T06:27:00.993Z,20.20
2022-09-12T06:32:03.355Z,21.00
2022-09-12T06:37:05.102Z,21.40
2022-09-12T06:42:06.882Z,21.70
2022-09-12T06:47:09.318Z,22.00
2022-09-12T06:52:11.893Z,21.90
2022-09-12T06:57:14.936Z,22.30
2022-09-12T07:02:16.668Z,22.50
2022-09-12T07:07:18.548Z,23.10
2022-09-12T07:12:20.659Z,23.50
2022-09-12T07:17:22.999Z,23.50
2022-09-12T07:22:24.796Z,23.20
2022-09-12T07:27:26.777Z,23.50
2022-09-12T07:32:28.488Z,23.60
2022-09-12T07:37:30.769Z,24.20
2022-09-12T07:42:32.489Z,24.60
2022-09-12T07:47:35.334Z,24.60
2022-09-12T07:52:37.758Z,24.40
2022-09-12T07:57:39.985Z,24.60
2022-09-12T08:02:41.940Z,25.20
2022-09-12T08:07:44.345Z,25.40
2022-09-12T08:12:45.994Z,25.30
2022-09-12T08:17:47.812Z,25.70
2022-09-12T08:22:49.493Z,25.70
2022-09-12T08:27:51.248Z,26.00
2022-09-12T08:32:52.940Z,26.50
2022-09-12T08:37:54.605Z,26.20
2022-09-12T08:43:07.913Z,26.60
2022-09-12T08:48:11.392Z,26.80
2022-09-12T08:53:16.315Z,26.90
2022-09-12T08:58:20.708Z,27.00
2022-09-12T09:03:37.163Z,27.20
2022-09-12T09:09:02.681Z,27.30
2022-09-12T09:14:24.160Z,27.50
2022-09-12T09:19:36.790Z,27.60
2022-09-12T09:25:02.437Z,27.60
2022-09-12T09:30:04.570Z,27.60
2022-09-12T09:35:38.258Z,27.90
2022-09-12T09:40:53.141Z,28.20
2022-09-12T09:45:57.388Z,27.60
2022-09-12T09:51:01.248Z,28.10
2022-09-12T09:56:11.773Z,28.60
2022-09-12T10:01:16.737Z,28.60
2022-09-12T10:06:36.976Z,28.50
2022-09-12T10:11:45.680Z,29.00
2022-09-12T10:16:51.958Z,29.40
2022-09-12T10:21:56.617Z,29.30
2022-09-12T10:27:13.167Z,29.00
2022-09-12T10:32:30.500Z,28.90
2022-09-12T10:37:38.925Z,28.70
2022-09-12T10:42:49.792Z,28.90
2022-09-12T10:47:52.965Z,29.70
2022-09-12T10:53:12.168Z,30.10
2022-09-12T10:58:35.112Z,30.50
2022-09-12T11:03:58.346Z,30.00
2022-09-12T11:09:10.378Z,29.80
2022-09-12T11:14:39.104Z,30.00
2022-09-12T11:19:49.386Z,29.80
2022-09-12T11:25:09.946Z,30.30
2022-09-12T11:30:15.858Z,30.80
2022-09-12T11:35:32.493Z,30.80
2022-09-12T11:41:06.404Z,30.00
2022-09-12T11:46:18.183Z,30.80
2022-09-12T11:51:35.365Z,30.00
2022-09-12T11:56:46.960Z,29.00
2022-09-12T12:01:53.546Z,30.10
2022-09-12T12:07:08.210Z,30.90
2022-09-12T12:12:19.115Z,30.90
2022-09-12T12:17:23.976Z,30.90
2022-09-12T12:22:26.538Z,30.00
2022-09-12T12:27:48.737Z,30.80
2022-09-12T12:32:50.421Z,30.80
2022-09-12T12:37:54.531Z,31.30
2022-09-12T12:42:56.196Z,30.80
2022-09-12T12:48:04.059Z,30.80
2022-09-12T12:53:27.593Z,31.90
2022-09-12T12:58:32.926Z,31.80
2022-09-12T13:03:35.858Z,32.30
2022-09-12T13:08:56.990Z,31.60
2022-09-12T13:14:01.539Z,31.90
2022-09-12T13:19:20.460Z,32.20
2022-09-12T13:24:23.485Z,32.20
2022-09-12T13:29:27.234Z,31.60
2022-09-12T13:34:33.756Z,31.90
2022-09-12T13:39:49.739Z,31.60
2022-09-12T13:45:02.962Z,31.00
2022-09-12T13:50:07.427Z,31.10
2022-09-12T13:55:23.955Z,31.60
2022-09-12T14:00:26.349Z,30.50
2022-09-12T14:05:28.131Z,31.30
2022-09-12T14:10:36.435Z,31.60
2022-09-12T14:15:40.010Z,31.00
2022-09-12T14:20:42.135Z,30.50
2022-09-12T14:25:44.754Z,30.40
2022-09-12T14:31:06.707Z,30.90
2022-09-12T14:36:43.082Z,31.50
2022-09-12T14:41:44.941Z,30.40
2022-09-12T14:46:50.415Z,29.70
2022-09-12T14:51:52.033Z,30.90
2022-09-12T14:57:06.868Z,29.70
2022-09-12T15:02:20.554Z,29.80
2022-09-12T15:07:26.757Z,29.40
2022-09-12T15:12:28.664Z,29.80
2022-09-12T15:17:30.335Z,29.80
2022-09-12T15:22:33.416Z,29.30
2022-09-12T15:27:35.083Z,29.20
2022-09-12T15:32:37.135Z,28.90
2022-09-12T15:37:38.894Z,28.80
2022-09-12T15:42:41.586Z,28.60
2022-09-12T15:47:43.400Z,28.50
2022-09-12T15:52:45.260Z,28.50
2022-09-12T15:57:47.291Z,28.40
2022-09-12T16:02:50.990Z,28.30
2022-09-12T16:07:54.750Z,28.20
2022-09-12T16:12:56.624Z,28.20
2022-09-12T16:17:58.300Z,28.10
2022-09-12T16:22:59.971Z,28.00
2022-09-12T16:28:01.872Z,28.00
2022-09-12T16:33:03.988Z,28.00
2022-09-12T16:38:05.651Z,28.00
2022-09-12T16:43:07.303Z,28.00
2022-09-12T16:48:08.995Z,27.80
2022-09-12T16:53:10.663Z,27.80
2022-09-12T16:58:12.407Z,27.70
2022-09-12T17:03:14.278Z,28.00
2022-09-12T17:08:15.987Z,28.30
2022-09-12T17:13:17.733Z,28.20
2022-09-12T17:18:19.881Z,27.40
2022-09-12T17:23:21.693Z,27.10
2022-09-12T17:28:23.455Z,26.90
2022-09-12T17:33:26.239Z,26.70
2022-09-12T17:38:28.759Z,26.70
2022-09-12T17:43:30.534Z,26.50
2022-09-12T17:48:33.241Z,26.30
2022-09-12T17:53:35.249Z,26.20
2022-09-12T17:58:37.580Z,26.20
2022-09-12T18:03:41.097Z,26.40
2022-09-12T18:08:42.785Z,26.10
2022-09-12T18:13:44.825Z,25.80
2022-09-12T18:18:46.534Z,25.90
2022-09-12T18:23:48.366Z,25.60
2022-09-12T18:28:50.035Z,25.50
2022-09-12T18:33:52.103Z,25.40
2022-09-12T18:38:53.788Z,25.30
2022-09-12T18:43:57.039Z,25.40
2022-09-12T18:48:59.815Z,25.30
2022-09-12T18:54:06.747Z,25.20
2022-09-12T18:59:10.325Z,25.50
2022-09-12T19:04:13.761Z,25.80
2022-09-12T19:09:18.183Z,25.90
2022-09-12T19:14:22.702Z,25.60
2022-09-12T19:19:24.415Z,25.60
2022-09-12T19:24:26.194Z,25.40
2022-09-12T19:29:27.947Z,25.20
2022-09-12T19:34:29.600Z,25.20
2022-09-12T19:39:31.285Z,24.90
2022-09-12T19:44:32.961Z,24.70
2022-09-12T19:49:34.621Z,24.80
2022-09-12T19:54:36.377Z,25.00
2022-09-12T19:59:38.058Z,24.50
2022-09-12T20:04:39.734Z,24.30
2022-09-12T20:09:41.398Z,24.10
2022-09-12T20:14:43.179Z,24.20
2022-09-12T20:19:44.829Z,24.00
2022-09-12T20:24:46.508Z,24.00
2022-09-12T20:29:48.208Z,24.00
2022-09-12T20:34:49.926Z,24.10
2022-09-12T20:39:51.619Z,23.90
2022-09-12T20:44:53.298Z,23.70
2022-09-12T20:49:54.976Z,23.80
2022-09-12T20:54:56.657Z,23.60
2022-09-12T20:59:58.316Z,23.70
2022-09-12T21:05:00.000Z,23.60
2022-09-12T21:10:01.723Z,23.20
2022-09-12T21:15:03.693Z,23.40
2022-09-12T21:20:10.645Z,23.30
2022-09-12T21:25:13.105Z,23.50
2022-09-12T21:30:14.891Z,23.30
2022-09-12T21:35:16.939Z,23.70
2022-09-12T21:40:19.041Z,23.40
2022-09-12T21:45:20.791Z,23.30
2022-09-12T21:50:22.421Z,23.10
2022-09-12T21:55:24.185Z,23.20
2022-09-12T22:00:25.916Z,23.50
2022-09-12T22:05:27.597Z,23.10
2022-09-12T22:10:29.307Z,22.70
2022-09-12T22:15:46.940Z,22.80
2022-09-12T22:20:48.696Z,22.90
2022-09-12T22:25:50.397Z,22.70
2022-09-12T22:30:52.398Z,22.80
2022-09-12T22:35:54.171Z,22.40
2022-09-12T22:40:55.845Z,22.70
2022-09-12T22:45:57.528Z,22.90
2022-09-12T22:50:59.209Z,22.60
2022-09-12T22:56:01.028Z,22.20
2022-09-12T23:01:05.253Z,22.10
2022-09-12T23:06:07.468Z,22.40
2022-09-12T23:11:11.790Z,22.20
2022-09-12T23:16:31.512Z,22.40
2022-09-12T23:21:33.231Z,22.10
2022-09-12T23:26:34.937Z,21.90
2022-09-12T23:31:36.765Z,22.20
2022-09-12T23:36:38.587Z,22.00
2022-09-12T23:41:40.245Z,22.20
2022-09-12T23:46:42.032Z,22.30
2022-09-12T23:51:43.720Z,22.20
2022-09-12T23:56:45.408Z,22.20
